Christina O — C6FN7 — position and weather

sailwx.info

Track history (hours):
 
Tides and Currents Weather Stations Pressure Air Temp Water Temp Dewpoint Dewpoint Depression Visibility Wind Speed Wind Dir Waves Ship Positions

Christina O

Operator: V Ships Leisure SAM

Last reported at 2017-Jul-22 16:31 UTC. Time now 2017-Jul-22 16:56 UTC.
Position N 58°28' E 020°54'.

Length 186 m; draft 6.1 m.

Type: Passenger vessel. MMSI: 308322000.

Date/timePositionNaut miles runAvg speedWind from/ knotsBaromVisibWave heightAir tempDewpointWater temp
2017-Jul-22 16:31N 58°28' E 020°54'815.8
2017-Jul-22 16:00N 58°22' E 020°44'815.9
2017-Jul-22 15:30N 58°16' E 020°35'815.9
2017-Jul-22 15:01N 58°10' E 020°26'2415.9
2017-Jul-22 13:31N 57°51' E 019°59'116.2
2017-Jul-22 13:28N 57°50' E 019°58'816.0
2017-Jul-22 12:59N 57°44' E 019°49'9115.9
2017-Jul-22 07:16N 56°35' E 018°01'516.0
2017-Jul-22 06:58N 56°32' E 017°54'915.9
2017-Jul-22 06:23N 56°27' E 017°40'2416.1
2017-Jul-22 04:54N 56°12' E 017°06'616.0
2017-Jul-22 04:31N 56°08' E 016°57'816.1
2017-Jul-22 04:01N 56°04' E 016°45'816.2
2017-Jul-22 03:31N 55°60' E 016°33'816.3
2017-Jul-22 03:01N 55°56' E 016°20'816.3
2017-Jul-22 02:31N 55°52' E 016°07'816.3
2017-Jul-22 02:01N 55°48' E 015°54'816.3
2017-Jul-22 01:31N 55°44' E 015°42'816.2
2017-Jul-22 01:00N 55°40' E 015°29'816.1
2017-Jul-22 00:30N 55°36' E 015°17'816.1
2017-Jul-22 00:00N 55°32' E 015°04'816.0
2017-Jul-21 23:31N 55°28' E 014°52'816.1
2017-Jul-21 23:00N 55°24' E 014°40'816.2
2017-Jul-21 22:30N 55°18' E 014°31'816.1
2017-Jul-21 22:01N 55°11' E 014°23'715.0
2017-Jul-21 21:31N 55°10' E 014°10'916.3
2017-Jul-21 20:57N 55°11' E 013°54'1916.1
2017-Jul-21 19:47N 55°13' E 013°21'416.2
2017-Jul-21 19:30N 55°14' E 013°13'916.1
2017-Jul-21 18:59N 55°14' E 012°58'815.9
2017-Jul-21 18:30N 55°16' E 012°46'713.2
2017-Jul-21 18:01N 55°21' E 012°38'816.1
2017-Jul-21 17:31N 55°29' E 012°41'612.4
2017-Jul-21 17:00N 55°35' E 012°42'510.2
2017-Jul-21 16:30N 55°40' E 012°41'3 6.7
2017-Jul-21 16:00N 55°43' E 012°37'1 1.6
2017-Jul-21 15:28N 55°42' E 012°36'0 0.0
2017-Jul-21 14:58N 55°42' E 012°36'0 0.0
2017-Jul-21 14:28N 55°42' E 012°36'0 0.0
2017-Jul-21 13:58N 55°42' E 012°36'0 0.0
2017-Jul-21 13:28N 55°42' E 012°36'0 0.0
2017-Jul-21 12:58N 55°42' E 012°36'0 0.0
2017-Jul-21 12:28N 55°42' E 012°36'0 0.0
2017-Jul-21 11:58N 55°42' E 012°36'0 0.0
2017-Jul-21 11:28N 55°42' E 012°36'0 0.0
2017-Jul-21 10:58N 55°42' E 012°36'0 0.0
2017-Jul-21 10:28N 55°42' E 012°36'0 0.0
2017-Jul-21 09:58N 55°42' E 012°36'0 0.0
2017-Jul-21 09:28N 55°42' E 012°36'0 0.0
2017-Jul-21 08:58N 55°42' E 012°36'0 0.0
2017-Jul-21 08:28N 55°42' E 012°36'0 0.0
2017-Jul-21 07:58N 55°42' E 012°36'0 0.0
2017-Jul-21 07:28N 55°42' E 012°36'0 0.0
2017-Jul-21 06:58N 55°42' E 012°36'0 0.0
2017-Jul-21 06:28N 55°42' E 012°36'0 0.0
2017-Jul-21 05:58N 55°42' E 012°36'0 0.0
2017-Jul-21 05:28N 55°42' E 012°36'0 0.0
2017-Jul-21 04:58N 55°42' E 012°36'0 0.1
2017-Jul-21 04:30N 55°42' E 012°36'3 6.7
2017-Jul-21 04:00N 55°44' E 012°40'611.5
2017-Jul-21 03:30N 55°50' E 012°42'612.5
2017-Jul-21 03:00N 55°56' E 012°37'713.8
2017-Jul-21 02:31N 56°03' E 012°38'612.7
2017-Jul-21 02:00N 56°07' E 012°30'714.8
2017-Jul-21 01:30N 56°11' E 012°19'815.2
2017-Jul-21 01:00N 56°16' E 012°08'3614.4
2017-Jul-20 22:29N 56°50' E 011°49'714.5
2017-Jul-20 21:59N 56°57' E 011°45'714.5
2017-Jul-20 21:30N 57°04' E 011°40'714.3
2017-Jul-20 21:00N 57°10' E 011°35'714.4
2017-Jul-20 20:30N 57°17' E 011°30'714.5
2017-Jul-20 20:00N 57°24' E 011°26'713.5
2017-Jul-20 19:30N 57°29' E 011°19'714.6
2017-Jul-20 19:00N 57°33' E 011°07'714.9
2017-Jul-20 18:30N 57°37' E 010°55'815.1
2017-Jul-20 18:00N 57°41' E 010°43'4 8.7
2017-Jul-20 17:30N 57°43' E 010°36'0 0.4
2017-Jul-20 16:46N 57°43' E 010°35'0 0.0
2017-Jul-20 16:25N 57°43' E 010°35'0 0.0
2017-Jul-20 15:52N 57°43' E 010°35'0 0.0
2017-Jul-20 15:19N 57°43' E 010°35'0 0.0
2017-Jul-20 12:52N 57°43' E 010°35'0 0.0
2017-Jul-20 12:10N 57°43' E 010°35'0 0.0
2017-Jul-20 11:58N 57°43' E 010°35'2 4.9
2017-Jul-20 11:29N 57°43' E 010°40'3 6.7
2017-Jul-20 11:00N 57°46' E 010°41'816.8
2017-Jul-20 10:30N 57°47' E 010°25'917.3
2017-Jul-20 10:00N 57°46' E 010°09'917.1
2017-Jul-20 09:27N 57°45' E 009°51'817.1
2017-Jul-20 09:00N 57°45' E 009°37'917.5
2017-Jul-20 08:30N 57°44' E 009°21'917.9
2017-Jul-20 08:00N 57°43' E 009°04'918.0
2017-Jul-20 07:30N 57°43' E 008°47'918.3
2017-Jul-20 07:00N 57°42' E 008°30'918.4
2017-Jul-20 06:30N 57°42' E 008°13'918.2
2017-Jul-20 05:59N 57°42' E 007°55'917.9
2017-Jul-20 05:30N 57°42' E 007°39'917.5
2017-Jul-20 05:00N 57°42' E 007°23'917.4
2017-Jul-20 04:30N 57°42' E 007°06'917.1
2017-Jul-20 04:00N 57°43' E 006°50'816.6
2017-Jul-20 03:30N 57°43' E 006°35'916.3
2017-Jul-20 02:58N 57°49' E 006°22'816.3
2017-Jul-20 02:30N 57°54' E 006°12'816.6
2017-Jul-20 02:00N 57°59' E 005°60'916.8
2017-Jul-20 01:29N 58°05' E 005°47'816.4
2017-Jul-20 01:00N 58°10' E 005°35'916.8
2017-Jul-20 00:27N 58°16' E 005°22'716.9
2017-Jul-20 00:00N 58°21' E 005°12'816.8
2017-Jul-19 23:30N 58°27' E 005°00'917.3
2017-Jul-19 23:00N 58°33' E 004°49'917.6
2017-Jul-19 22:30N 58°40' E 004°38'917.1
2017-Jul-19 22:00N 58°46' E 004°26'816.7
2017-Jul-19 21:30N 58°52' E 004°15'4915.6
2017-Jul-19 18:21N 59°41' E 004°31'717.3
2017-Jul-19 17:56N 59°47' E 004°37'817.4
2017-Jul-19 17:30N 59°54' E 004°44'917.5
2017-Jul-19 17:00N 60°02' E 004°51'817.0
2017-Jul-19 16:30N 60°09' E 005°01'612.7
2017-Jul-19 16:00N 60°13' E 005°10'713.7
2017-Jul-19 15:30N 60°20' E 005°12'5 9.1
2017-Jul-19 15:00N 60°24' E 005°14'2 4.0
2017-Jul-19 14:29N 60°24' E 005°19'0 0.0
2017-Jul-19 13:59N 60°24' E 005°19'0 0.0
2017-Jul-19 13:29N 60°24' E 005°19'0 0.0
2017-Jul-19 12:59N 60°24' E 005°19'0 0.0
2017-Jul-19 12:29N 60°24' E 005°19'0 0.0
2017-Jul-19 11:59N 60°24' E 005°19'0 0.0
2017-Jul-19 11:29N 60°24' E 005°19'0 0.0
2017-Jul-19 10:59N 60°24' E 005°19'0 0.0
2017-Jul-19 10:29N 60°24' E 005°19'0 0.0
2017-Jul-19 09:59N 60°24' E 005°19'0 0.0
2017-Jul-19 09:29N 60°24' E 005°19'0 0.0
2017-Jul-19 08:59N 60°24' E 005°19'0 0.0
2017-Jul-19 08:29N 60°24' E 005°19'0 0.0
2017-Jul-19 07:59N 60°24' E 005°19'0 0.0
2017-Jul-19 07:29N 60°24' E 005°19'0 0.0
2017-Jul-19 06:59N 60°24' E 005°19'0 0.0
2017-Jul-19 06:29N 60°24' E 005°19'0 0.0
2017-Jul-19 06:00N 60°24' E 005°19'1 1.3
2017-Jul-19 05:30N 60°24' E 005°17'4 7.2
2017-Jul-19 05:00N 60°23' E 005°10'714.3
2017-Jul-19 04:30N 60°28' E 005°00'714.7
2017-Jul-19 04:00N 60°35' E 004°55'714.9
2017-Jul-19 03:30N 60°42' E 004°49'815.8
2017-Jul-19 03:00N 60°46' E 004°35'714.6
2017-Jul-19 02:30N 60°51' E 004°25'816.1
2017-Jul-19 02:00N 60°59' E 004°19'815.8
2017-Jul-19 01:30N 61°07' E 004°19'815.9
2017-Jul-19 01:00N 61°15' E 004°20'815.9
2017-Jul-19 00:30N 61°22' E 004°21'815.9
2017-Jul-19 00:00N 61°30' E 004°23'815.8
2017-Jul-18 23:30N 61°38' E 004°24'815.9
2017-Jul-18 23:00N 61°46' E 004°29'816.0
2017-Jul-18 22:30N 61°53' E 004°34'816.0
2017-Jul-18 22:00N 62°01' E 004°40'816.0
2017-Jul-18 21:30N 62°08' E 004°49'815.6
2017-Jul-18 21:01N 62°13' E 005°02'714.3
2017-Jul-18 20:30N 62°12' E 005°17'510.2
2017-Jul-18 20:00N 62°12' E 005°28'611.9
2017-Jul-18 19:30N 62°11' E 005°40'816.2
2017-Jul-18 19:00N 62°15' E 005°56'917.1
2017-Jul-18 18:31N 62°21' E 006°09'917.1
2017-Jul-18 18:00N 62°25' E 006°26'917.6
2017-Jul-18 17:30N 62°27' E 006°44'714.8
2017-Jul-18 17:01N 62°22' E 006°55'814.8
2017-Jul-18 16:30N 62°15' E 007°01'714.7
2017-Jul-18 16:00N 62°08' E 006°58'4 8.9
2017-Jul-18 15:30N 62°07' E 007°07'2 4.2
2017-Jul-18 15:01N 62°07' E 007°11'0 0.0
2017-Jul-18 14:01N 62°07' E 007°11'0 0.0
2017-Jul-18 13:28N 62°07' E 007°11'0 0.0
2017-Jul-18 13:01N 62°07' E 007°11'0 0.0
2017-Jul-18 12:31N 62°07' E 007°11'0 0.0
2017-Jul-18 12:01N 62°07' E 007°11'0 0.0
2017-Jul-18 11:31N 62°07' E 007°11'0 0.0
2017-Jul-18 11:01N 62°07' E 007°11'0 0.0
2017-Jul-18 10:31N 62°07' E 007°11'0 0.0
2017-Jul-18 10:01N 62°07' E 007°11'0 0.0
2017-Jul-18 09:31N 62°07' E 007°11'0 0.2
2017-Jul-18 09:00N 62°07' E 007°11'2 4.3
2017-Jul-18 08:31N 62°07' E 007°06'3 6.4
2017-Jul-18 08:00N 62°06' E 006°60'3 4.0
2017-Jul-18 07:16N 62°06' E 006°54'0 0.1
2017-Jul-18 06:18N 62°06' E 006°53'0 0.1
2017-Jul-18 05:44N 62°06' E 006°53'1 1.5
2017-Jul-18 04:55N 62°06' E 006°55'2 4.9
2017-Jul-18 04:30N 62°08' E 006°58'3 5.7
2017-Jul-18 04:00N 62°10' E 007°01'3 6.2
2017-Jul-18 03:30N 62°14' E 007°01'3 6.6
2017-Jul-18 03:00N 62°17' E 007°01'3 6.5
2017-Jul-18 02:30N 62°20' E 006°57'3 6.5
2017-Jul-18 02:00N 62°23' E 006°55'3 6.3
2017-Jul-18 01:30N 62°26' E 006°54'3 6.8
2017-Jul-18 01:00N 62°27' E 006°47'3 6.6
2017-Jul-18 00:30N 62°27' E 006°40'3 6.8
2017-Jul-18 00:00N 62°26' E 006°33'3 6.8
2017-Jul-17 23:30N 62°25' E 006°26'4 6.9
2017-Jul-17 23:00N 62°24' E 006°19'3 7.0
2017-Jul-17 22:30N 62°23' E 006°11'3 6.5
2017-Jul-17 22:00N 62°24' E 006°05'3 5.9
2017-Jul-17 21:30N 62°27' E 006°05'2 4.9
2017-Jul-17 21:00N 62°28' E 006°09'0 0.0
2017-Jul-17 20:29N 62°28' E 006°09'0 0.0
2017-Jul-17 19:59N 62°28' E 006°09'0 0.0
2017-Jul-17 19:29N 62°28' E 006°09'0 0.0
2017-Jul-17 18:59N 62°28' E 006°09'0 0.0
2017-Jul-17 18:29N 62°28' E 006°09'0 0.0
2017-Jul-17 17:59N 62°28' E 006°09'0 0.0
2017-Jul-17 17:29N 62°28' E 006°09'0 0.0
2017-Jul-17 17:01N 62°28' E 006°09'0 0.0
2017-Jul-17 16:29N 62°28' E 006°09'0 0.0
2017-Jul-17 16:01N 62°28' E 006°09'0 0.0
2017-Jul-17 15:29N 62°28' E 006°09'0 0.0
2017-Jul-17 14:59N 62°28' E 006°09'0 0.0
2017-Jul-17 14:29N 62°28' E 006°09'0 0.0
2017-Jul-17 13:59N 62°28' E 006°09'0 0.0
2017-Jul-17 13:31N 62°28' E 006°09'0 0.0
2017-Jul-17 13:01N 62°28' E 006°09'0 0.0
2017-Jul-17 12:31N 62°28' E 006°09'0 0.0
2017-Jul-17 12:00N 62°28' E 006°09'0 0.8
2017-Jul-17 11:30N 62°28' E 006°10'1 1.7
2017-Jul-17 11:00N 62°28' E 006°11'1 1.2
2017-Jul-17 10:30N 62°27' E 006°10'3 6.1
2017-Jul-17 09:59N 62°27' E 006°04'3 6.6
2017-Jul-17 09:30N 62°24' E 006°05'4 7.1
2017-Jul-17 09:00N 62°20' E 006°07'4 8.1
2017-Jul-17 08:30N 62°17' E 006°01'4 8.0
2017-Jul-17 08:00N 62°14' E 005°56'4 7.5
2017-Jul-17 07:30N 62°12' E 005°49'4 7.7
2017-Jul-17 07:00N 62°11' E 005°41'4 8.1
2017-Jul-17 06:30N 62°12' E 005°32'4 7.6
2017-Jul-17 06:00N 62°10' E 005°25'5 9.7
2017-Jul-17 05:30N 62°13' E 005°16'612.0
2017-Jul-17 05:00N 62°13' E 005°03'816.2
2017-Jul-17 04:30N 62°07' E 004°52'816.4
2017-Jul-17 04:00N 62°01' E 004°41'816.3
2017-Jul-17 03:30N 61°53' E 004°34'816.2
2017-Jul-17 03:00N 61°46' E 004°29'816.2
2017-Jul-17 02:30N 61°38' E 004°25'816.0
2017-Jul-17 02:00N 61°30' E 004°25'714.8
2017-Jul-17 01:30N 61°22' E 004°25'612.8
2017-Jul-17 01:00N 61°16' E 004°29'510.8
2017-Jul-17 00:30N 61°14' E 004°40'612.1
2017-Jul-17 00:00N 61°14' E 004°52'713.0
2017-Jul-16 23:30N 61°10' E 005°03'713.6
2017-Jul-16 23:00N 61°06' E 005°13'612.6
2017-Jul-16 22:30N 61°04' E 005°26'612.9
2017-Jul-16 22:00N 61°07' E 005°38'712.8
2017-Jul-16 21:30N 61°08' E 005°51'612.6
2017-Jul-16 21:00N 61°08' E 006°04'712.8
2017-Jul-16 20:30N 61°07' E 006°17'612.5
2017-Jul-16 20:00N 61°07' E 006°30'612.5
2017-Jul-16 19:30N 61°11' E 006°39'613.3
2017-Jul-16 19:00N 61°09' E 006°52'712.9
2017-Jul-16 18:30N 61°04' E 007°01'612.9
2017-Jul-16 18:00N 60°58' E 007°05'510.7
2017-Jul-16 17:30N 60°53' E 007°08'1 1.6
2017-Jul-16 17:00N 60°52' E 007°08'0 0.0
2017-Jul-16 16:30N 60°52' E 007°08'0 0.5
2017-Jul-16 16:00N 60°52' E 007°08'0 0.1
2017-Jul-16 15:30N 60°52' E 007°08'1 1.5
2017-Jul-16 15:00N 60°53' E 007°09'0 0.0
2017-Jul-16 14:30N 60°53' E 007°09'0 0.0
2017-Jul-16 14:00N 60°53' E 007°09'0 0.0
2017-Jul-16 13:30N 60°53' E 007°09'0 0.0
2017-Jul-16 13:00N 60°53' E 007°09'0 0.0
2017-Jul-16 12:30N 60°53' E 007°09'0 0.0
2017-Jul-16 12:00N 60°53' E 007°09'0 0.0
2017-Jul-16 11:30N 60°53' E 007°09'0 0.0
2017-Jul-16 11:00N 60°53' E 007°09'0 0.1
2017-Jul-16 10:30N 60°53' E 007°09'0 0.3
2017-Jul-16 10:00N 60°53' E 007°08'0 0.4
2017-Jul-16 09:29N 60°53' E 007°08'0 0.0
2017-Jul-16 08:59N 60°53' E 007°08'0 0.1
2017-Jul-16 08:29N 60°53' E 007°08'0 0.0
2017-Jul-16 07:59N 60°53' E 007°08'0 0.0
2017-Jul-16 07:29N 60°53' E 007°08'0 0.0
2017-Jul-16 06:59N 60°53' E 007°08'0 0.0
2017-Jul-16 06:29N 60°53' E 007°08'0 0.1
2017-Jul-16 05:59N 60°53' E 007°08'0 0.1
2017-Jul-16 05:30N 60°53' E 007°08'1 2.8
2017-Jul-16 05:00N 60°54' E 007°09'3 6.6
2017-Jul-16 04:30N 60°57' E 007°07'713.1
2017-Jul-16 04:00N 61°03' E 007°01'713.2
2017-Jul-16 03:30N 61°08' E 006°53'713.4
2017-Jul-16 03:00N 61°11' E 006°40'611.9
2017-Jul-16 02:30N 61°07' E 006°31'612.9
2017-Jul-16 02:00N 61°07' E 006°18'713.6
2017-Jul-16 01:30N 61°08' E 006°04'713.5
2017-Jul-16 01:00N 61°08' E 005°50'713.5
2017-Jul-16 00:30N 61°06' E 005°37'713.7
2017-Jul-16 00:00N 61°04' E 005°23'713.8
2017-Jul-15 23:30N 61°06' E 005°10'714.9
2017-Jul-15 23:00N 61°03' E 004°57'815.5
2017-Jul-15 22:31N 60°58' E 004°44'815.1
2017-Jul-15 22:00N 60°51' E 004°41'713.6
2017-Jul-15 21:30N 60°44' E 004°45'611.9
2017-Jul-15 21:00N 60°42' E 004°33'816.7
2017-Jul-15 20:30N 60°34' E 004°30'7615.7
2017-Jul-15 15:39N 59°19' E 004°10'317.1
2017-Jul-15 15:30N 59°16' E 004°10'917.3
2017-Jul-15 15:00N 59°08' E 004°11'1916.8
2017-Jul-15 13:54N 58°52' E 004°30'716.8
2017-Jul-15 13:30N 58°47' E 004°39'816.7
2017-Jul-15 13:00N 58°41' E 004°50'817.0
2017-Jul-15 12:30N 58°35' E 005°01'917.6
2017-Jul-15 12:00N 58°29' E 005°13'918.0
2017-Jul-15 11:30N 58°22' E 005°25'917.8
2017-Jul-15 11:00N 58°17' E 005°38'918.1
2017-Jul-15 10:30N 58°11' E 005°51'918.3
2017-Jul-15 10:00N 58°05' E 006°05'918.1
2017-Jul-15 09:30N 57°59' E 006°17'918.0
2017-Jul-15 09:00N 57°53' E 006°30'816.6
2017-Jul-15 08:30N 57°49' E 006°44'816.6
2017-Jul-15 08:00N 57°48' E 006°59'816.6
2017-Jul-15 07:30N 57°48' E 007°15'816.6
2017-Jul-15 07:00N 57°48' E 007°31'816.7
2017-Jul-15 06:30N 57°47' E 007°46'816.7
2017-Jul-15 06:00N 57°47' E 008°02'4716.2
2017-Jul-15 03:06N 57°49' E 009°30'215.9
2017-Jul-15 03:00N 57°49' E 009°33'816.0
2017-Jul-15 02:30N 57°49' E 009°48'916.3
2017-Jul-15 01:56N 57°49' E 010°06'716.2
2017-Jul-15 01:28N 57°49' E 010°20'816.0
2017-Jul-15 01:00N 57°49' E 010°34'815.4
2017-Jul-15 00:30N 57°47' E 010°47'816.2
2017-Jul-15 00:00N 57°42' E 010°59'816.2
2017-Jul-14 23:30N 57°36' E 011°10'816.5
2017-Jul-14 23:00N 57°30' E 011°21'815.9
2017-Jul-14 22:31N 57°24' E 011°30'816.5
2017-Jul-14 22:00N 57°16' E 011°34'916.6
2017-Jul-14 21:29N 57°08' E 011°40'816.8
2017-Jul-14 21:00N 57°00' E 011°45'816.7
2017-Jul-14 20:30N 56°53' E 011°50'816.6
2017-Jul-14 20:00N 56°45' E 011°54'816.7
2017-Jul-14 19:30N 56°37' E 011°58'2615.6
2017-Jul-14 17:52N 56°13' E 012°17'616.3
2017-Jul-14 17:30N 56°10' E 012°26'816.4
2017-Jul-14 17:00N 56°05' E 012°37'816.2
2017-Jul-14 16:30N 55°57' E 012°43'816.0
2017-Jul-14 16:00N 55°49' E 012°43'714.3
2017-Jul-14 15:31N 55°43' E 012°38'2 3.4
2017-Jul-14 14:59N 55°41' E 012°36'0 0.0
2017-Jul-14 14:29N 55°41' E 012°36'0 0.0
2017-Jul-14 13:59N 55°41' E 012°36'0 0.0
2017-Jul-14 13:29N 55°41' E 012°36'0 0.0
2017-Jul-14 12:59N 55°41' E 012°36'0 0.0
2017-Jul-14 12:29N 55°41' E 012°36'0 0.0
2017-Jul-14 11:59N 55°41' E 012°36'0 0.0
2017-Jul-14 11:29N 55°41' E 012°36'0 0.0
2017-Jul-14 10:59N 55°41' E 012°36'0 0.0
2017-Jul-14 10:29N 55°41' E 012°36'0 0.0
2017-Jul-14 09:59N 55°41' E 012°36'0 0.0
2017-Jul-14 09:29N 55°41' E 012°36'0 0.0
2017-Jul-14 08:59N 55°41' E 012°36'0 0.0
2017-Jul-14 08:29N 55°41' E 012°36'0 0.0
2017-Jul-14 07:59N 55°41' E 012°36'0 0.0
2017-Jul-14 07:29N 55°41' E 012°36'0 0.0
2017-Jul-14 06:59N 55°41' E 012°36'0 0.0
2017-Jul-14 06:29N 55°41' E 012°36'0 0.0
2017-Jul-14 05:59N 55°41' E 012°36'0 0.0
2017-Jul-14 05:29N 55°41' E 012°36'0 0.0
2017-Jul-14 04:59N 55°41' E 012°36'0 0.0
2017-Jul-14 04:29N 55°41' E 012°36'0 0.0
2017-Jul-14 03:59N 55°41' E 012°36'0 0.0
2017-Jul-14 03:29N 55°41' E 012°36'0 0.0
2017-Jul-14 02:59N 55°41' E 012°36'0 0.0
2017-Jul-14 02:29N 55°41' E 012°36'0 0.0
2017-Jul-14 01:59N 55°41' E 012°36'0 0.0
2017-Jul-14 01:29N 55°41' E 012°36'0 0.0
2017-Jul-14 00:59N 55°41' E 012°36'0 0.0
2017-Jul-14 00:29N 55°41' E 012°36'0 0.0
2017-Jul-13 23:59N 55°41' E 012°36'0 0.0
2017-Jul-13 23:29N 55°41' E 012°36'0 0.0
2017-Jul-13 22:59N 55°41' E 012°36'0 0.0
2017-Jul-13 22:29N 55°41' E 012°36'0 0.0
2017-Jul-13 21:59N 55°41' E 012°36'0 0.0
2017-Jul-13 21:29N 55°41' E 012°36'0 0.0
2017-Jul-13 20:59N 55°41' E 012°36'0 0.0
2017-Jul-13 20:29N 55°41' E 012°36'0 0.0
2017-Jul-13 19:59N 55°41' E 012°36'0 0.0
2017-Jul-13 19:29N 55°41' E 012°36'0 0.0
2017-Jul-13 18:59N 55°41' E 012°36'0 0.0
2017-Jul-13 18:29N 55°41' E 012°36'0 0.0
2017-Jul-13 17:59N 55°41' E 012°36'0 0.0
2017-Jul-13 17:29N 55°41' E 012°36'0 0.0
2017-Jul-13 16:59N 55°41' E 012°36'0 0.0
2017-Jul-13 16:29N 55°41' E 012°36'0 0.0
2017-Jul-13 15:59N 55°41' E 012°36'0 0.0
2017-Jul-13 15:29N 55°41' E 012°36'0 0.0
2017-Jul-13 14:59N 55°41' E 012°36'0 0.0
2017-Jul-13 14:29N 55°41' E 012°36'0 0.0
2017-Jul-13 13:59N 55°41' E 012°36'0 0.0
2017-Jul-13 13:29N 55°41' E 012°36'0 0.0
2017-Jul-13 12:59N 55°41' E 012°36'0 0.0
2017-Jul-13 12:29N 55°41' E 012°36'0 0.0
2017-Jul-13 11:59N 55°41' E 012°36'0 0.0
2017-Jul-13 11:29N 55°41' E 012°36'0 0.0
2017-Jul-13 10:59N 55°41' E 012°36'0 0.0
2017-Jul-13 10:29N 55°41' E 012°36'0 0.3
2017-Jul-13 10:01N 55°42' E 012°36'3 6.7
2017-Jul-13 09:31N 55°44' E 012°40'611.5
2017-Jul-13 09:00N 55°38' E 012°42'611.5
2017-Jul-13 08:30N 55°33' E 012°43'612.5
2017-Jul-13 08:01N 55°26' E 012°42'714.6
2017-Jul-13 07:30N 55°19' E 012°42'713.2
2017-Jul-13 07:00N 55°16' E 012°52'714.3
2017-Jul-13 06:30N 55°16' E 013°05'816.2
2017-Jul-13 06:00N 55°15' E 013°19'917.5
2017-Jul-13 05:30N 55°15' E 013°34'917.4
2017-Jul-13 05:01N 55°14' E 013°49'917.4
2017-Jul-13 04:30N 55°14' E 014°05'815.5
2017-Jul-13 04:01N 55°14' E 014°18'816.3
2017-Jul-13 03:31N 55°21' E 014°27'816.3
2017-Jul-13 03:01N 55°27' E 014°37'816.4
2017-Jul-13 02:31N 55°31' E 014°49'816.6
2017-Jul-13 02:01N 55°35' E 015°02'816.7
2017-Jul-13 01:31N 55°39' E 015°15'816.7
2017-Jul-13 01:01N 55°44' E 015°27'816.8
2017-Jul-13 00:31N 55°48' E 015°40'816.9
2017-Jul-13 00:00N 55°52' E 015°54'917.1
2017-Jul-12 23:30N 55°56' E 016°07'917.6
2017-Jul-12 23:00N 56°01' E 016°20'917.7
2017-Jul-12 22:31N 56°06' E 016°33'917.5
2017-Jul-12 22:00N 56°11' E 016°46'917.6
2017-Jul-12 21:31N 56°16' E 016°59'917.6
2017-Jul-12 21:00N 56°21' E 017°12'1017.7
2017-Jul-12 20:28N 56°26' E 017°26'1117.6
2017-Jul-12 19:50N 56°33' E 017°43'617.7
2017-Jul-12 19:29N 56°37' E 017°52'  
Track history (hours):
 
Tides and Currents Weather Stations Pressure Air Temp Water Temp Dewpoint Dewpoint Depression Visibility Wind Speed Wind Dir Waves Ship Positions

Christina O

Operator: V Ships Leisure SAM

Last reported at 2017-Jul-22 16:31 UTC. Time now 2017-Jul-22 16:56 UTC.
Position N 58°28' E 020°54'.

Length 186 m; draft 6.1 m.

Type: Passenger vessel. MMSI: 308322000.

Date/timePositionNaut miles runAvg speedWind from/ knotsBaromVisibWave heightAir tempDewpointWater temp
2017-Jul-22 16:31N 58°28' E 020°54'815.8
2017-Jul-22 16:00N 58°22' E 020°44'815.9
2017-Jul-22 15:30N 58°16' E 020°35'815.9
2017-Jul-22 15:01N 58°10' E 020°26'2415.9
2017-Jul-22 13:31N 57°51' E 019°59'116.2
2017-Jul-22 13:28N 57°50' E 019°58'816.0
2017-Jul-22 12:59N 57°44' E 019°49'9115.9
2017-Jul-22 07:16N 56°35' E 018°01'516.0
2017-Jul-22 06:58N 56°32' E 017°54'915.9
2017-Jul-22 06:23N 56°27' E 017°40'2416.1
2017-Jul-22 04:54N 56°12' E 017°06'616.0
2017-Jul-22 04:31N 56°08' E 016°57'816.1
2017-Jul-22 04:01N 56°04' E 016°45'816.2
2017-Jul-22 03:31N 55°60' E 016°33'816.3
2017-Jul-22 03:01N 55°56' E 016°20'816.3
2017-Jul-22 02:31N 55°52' E 016°07'816.3
2017-Jul-22 02:01N 55°48' E 015°54'816.3
2017-Jul-22 01:31N 55°44' E 015°42'816.2
2017-Jul-22 01:00N 55°40' E 015°29'816.1
2017-Jul-22 00:30N 55°36' E 015°17'816.1
2017-Jul-22 00:00N 55°32' E 015°04'816.0
2017-Jul-21 23:31N 55°28' E 014°52'816.1
2017-Jul-21 23:00N 55°24' E 014°40'816.2
2017-Jul-21 22:30N 55°18' E 014°31'816.1
2017-Jul-21 22:01N 55°11' E 014°23'715.0
2017-Jul-21 21:31N 55°10' E 014°10'916.3
2017-Jul-21 20:57N 55°11' E 013°54'1916.1
2017-Jul-21 19:47N 55°13' E 013°21'416.2
2017-Jul-21 19:30N 55°14' E 013°13'916.1
2017-Jul-21 18:59N 55°14' E 012°58'815.9
2017-Jul-21 18:30N 55°16' E 012°46'713.2
2017-Jul-21 18:01N 55°21' E 012°38'816.1
2017-Jul-21 17:31N 55°29' E 012°41'612.4
2017-Jul-21 17:00N 55°35' E 012°42'510.2
2017-Jul-21 16:30N 55°40' E 012°41'3 6.7
2017-Jul-21 16:00N 55°43' E 012°37'1 1.6
2017-Jul-21 15:28N 55°42' E 012°36'0 0.0
2017-Jul-21 14:58N 55°42' E 012°36'0 0.0
2017-Jul-21 14:28N 55°42' E 012°36'0 0.0
2017-Jul-21 13:58N 55°42' E 012°36'0 0.0
2017-Jul-21 13:28N 55°42' E 012°36'0 0.0
2017-Jul-21 12:58N 55°42' E 012°36'0 0.0
2017-Jul-21 12:28N 55°42' E 012°36'0 0.0
2017-Jul-21 11:58N 55°42' E 012°36'0 0.0
2017-Jul-21 11:28N 55°42' E 012°36'0 0.0
2017-Jul-21 10:58N 55°42' E 012°36'0 0.0
2017-Jul-21 10:28N 55°42' E 012°36'0 0.0
2017-Jul-21 09:58N 55°42' E 012°36'0 0.0
2017-Jul-21 09:28N 55°42' E 012°36'0 0.0
2017-Jul-21 08:58N 55°42' E 012°36'0 0.0
2017-Jul-21 08:28N 55°42' E 012°36'0 0.0
2017-Jul-21 07:58N 55°42' E 012°36'0 0.0
2017-Jul-21 07:28N 55°42' E 012°36'0 0.0
2017-Jul-21 06:58N 55°42' E 012°36'0 0.0
2017-Jul-21 06:28N 55°42' E 012°36'0 0.0
2017-Jul-21 05:58N 55°42' E 012°36'0 0.0
2017-Jul-21 05:28N 55°42' E 012°36'0 0.0
2017-Jul-21 04:58N 55°42' E 012°36'0 0.1
2017-Jul-21 04:30N 55°42' E 012°36'3 6.7
2017-Jul-21 04:00N 55°44' E 012°40'611.5
2017-Jul-21 03:30N 55°50' E 012°42'612.5
2017-Jul-21 03:00N 55°56' E 012°37'713.8
2017-Jul-21 02:31N 56°03' E 012°38'612.7
2017-Jul-21 02:00N 56°07' E 012°30'714.8
2017-Jul-21 01:30N 56°11' E 012°19'815.2
2017-Jul-21 01:00N 56°16' E 012°08'3614.4
2017-Jul-20 22:29N 56°50' E 011°49'714.5
2017-Jul-20 21:59N 56°57' E 011°45'714.5
2017-Jul-20 21:30N 57°04' E 011°40'714.3
2017-Jul-20 21:00N 57°10' E 011°35'714.4
2017-Jul-20 20:30N 57°17' E 011°30'714.5
2017-Jul-20 20:00N 57°24' E 011°26'713.5
2017-Jul-20 19:30N 57°29' E 011°19'714.6
2017-Jul-20 19:00N 57°33' E 011°07'714.9
2017-Jul-20 18:30N 57°37' E 010°55'815.1
2017-Jul-20 18:00N 57°41' E 010°43'4 8.7
2017-Jul-20 17:30N 57°43' E 010°36'0 0.4
2017-Jul-20 16:46N 57°43' E 010°35'0 0.0
2017-Jul-20 16:25N 57°43' E 010°35'0 0.0
2017-Jul-20 15:52N 57°43' E 010°35'0 0.0
2017-Jul-20 15:19N 57°43' E 010°35'0 0.0
2017-Jul-20 12:52N 57°43' E 010°35'0 0.0
2017-Jul-20 12:10N 57°43' E 010°35'0 0.0
2017-Jul-20 11:58N 57°43' E 010°35'2 4.9
2017-Jul-20 11:29N 57°43' E 010°40'3 6.7
2017-Jul-20 11:00N 57°46' E 010°41'816.8
2017-Jul-20 10:30N 57°47' E 010°25'917.3
2017-Jul-20 10:00N 57°46' E 010°09'917.1
2017-Jul-20 09:27N 57°45' E 009°51'817.1
2017-Jul-20 09:00N 57°45' E 009°37'917.5
2017-Jul-20 08:30N 57°44' E 009°21'917.9
2017-Jul-20 08:00N 57°43' E 009°04'918.0
2017-Jul-20 07:30N 57°43' E 008°47'918.3
2017-Jul-20 07:00N 57°42' E 008°30'918.4
2017-Jul-20 06:30N 57°42' E 008°13'918.2
2017-Jul-20 05:59N 57°42' E 007°55'917.9
2017-Jul-20 05:30N 57°42' E 007°39'917.5
2017-Jul-20 05:00N 57°42' E 007°23'917.4
2017-Jul-20 04:30N 57°42' E 007°06'917.1
2017-Jul-20 04:00N 57°43' E 006°50'816.6
2017-Jul-20 03:30N 57°43' E 006°35'916.3
2017-Jul-20 02:58N 57°49' E 006°22'816.3
2017-Jul-20 02:30N 57°54' E 006°12'816.6
2017-Jul-20 02:00N 57°59' E 005°60'916.8
2017-Jul-20 01:29N 58°05' E 005°47'816.4
2017-Jul-20 01:00N 58°10' E 005°35'916.8
2017-Jul-20 00:27N 58°16' E 005°22'716.9
2017-Jul-20 00:00N 58°21' E 005°12'816.8
2017-Jul-19 23:30N 58°27' E 005°00'917.3
2017-Jul-19 23:00N 58°33' E 004°49'917.6
2017-Jul-19 22:30N 58°40' E 004°38'917.1
2017-Jul-19 22:00N 58°46' E 004°26'816.7
2017-Jul-19 21:30N 58°52' E 004°15'4915.6
2017-Jul-19 18:21N 59°41' E 004°31'717.3
2017-Jul-19 17:56N 59°47' E 004°37'817.4
2017-Jul-19 17:30N 59°54' E 004°44'917.5
2017-Jul-19 17:00N 60°02' E 004°51'817.0
2017-Jul-19 16:30N 60°09' E 005°01'612.7
2017-Jul-19 16:00N 60°13' E 005°10'713.7
2017-Jul-19 15:30N 60°20' E 005°12'5 9.1
2017-Jul-19 15:00N 60°24' E 005°14'2 4.0
2017-Jul-19 14:29N 60°24' E 005°19'0 0.0
2017-Jul-19 13:59N 60°24' E 005°19'0 0.0
2017-Jul-19 13:29N 60°24' E 005°19'0 0.0
2017-Jul-19 12:59N 60°24' E 005°19'0 0.0
2017-Jul-19 12:29N 60°24' E 005°19'0 0.0
2017-Jul-19 11:59N 60°24' E 005°19'0 0.0
2017-Jul-19 11:29N 60°24' E 005°19'0 0.0
2017-Jul-19 10:59N 60°24' E 005°19'0 0.0
2017-Jul-19 10:29N 60°24' E 005°19'0 0.0
2017-Jul-19 09:59N 60°24' E 005°19'0 0.0
2017-Jul-19 09:29N 60°24' E 005°19'0 0.0
2017-Jul-19 08:59N 60°24' E 005°19'0 0.0
2017-Jul-19 08:29N 60°24' E 005°19'0 0.0
2017-Jul-19 07:59N 60°24' E 005°19'0 0.0
2017-Jul-19 07:29N 60°24' E 005°19'0 0.0
2017-Jul-19 06:59N 60°24' E 005°19'0 0.0
2017-Jul-19 06:29N 60°24' E 005°19'0 0.0
2017-Jul-19 06:00N 60°24' E 005°19'1 1.3
2017-Jul-19 05:30N 60°24' E 005°17'4 7.2
2017-Jul-19 05:00N 60°23' E 005°10'714.3
2017-Jul-19 04:30N 60°28' E 005°00'714.7
2017-Jul-19 04:00N 60°35' E 004°55'714.9
2017-Jul-19 03:30N 60°42' E 004°49'815.8
2017-Jul-19 03:00N 60°46' E 004°35'714.6
2017-Jul-19 02:30N 60°51' E 004°25'816.1
2017-Jul-19 02:00N 60°59' E 004°19'815.8
2017-Jul-19 01:30N 61°07' E 004°19'815.9
2017-Jul-19 01:00N 61°15' E 004°20'815.9
2017-Jul-19 00:30N 61°22' E 004°21'815.9
2017-Jul-19 00:00N 61°30' E 004°23'815.8
2017-Jul-18 23:30N 61°38' E 004°24'815.9
2017-Jul-18 23:00N 61°46' E 004°29'816.0
2017-Jul-18 22:30N 61°53' E 004°34'816.0
2017-Jul-18 22:00N 62°01' E 004°40'816.0
2017-Jul-18 21:30N 62°08' E 004°49'815.6
2017-Jul-18 21:01N 62°13' E 005°02'714.3
2017-Jul-18 20:30N 62°12' E 005°17'510.2
2017-Jul-18 20:00N 62°12' E 005°28'611.9
2017-Jul-18 19:30N 62°11' E 005°40'816.2
2017-Jul-18 19:00N 62°15' E 005°56'917.1
2017-Jul-18 18:31N 62°21' E 006°09'917.1
2017-Jul-18 18:00N 62°25' E 006°26'917.6
2017-Jul-18 17:30N 62°27' E 006°44'714.8
2017-Jul-18 17:01N 62°22' E 006°55'814.8
2017-Jul-18 16:30N 62°15' E 007°01'714.7
2017-Jul-18 16:00N 62°08' E 006°58'4 8.9
2017-Jul-18 15:30N 62°07' E 007°07'2 4.2
2017-Jul-18 15:01N 62°07' E 007°11'0 0.0
2017-Jul-18 14:01N 62°07' E 007°11'0 0.0
2017-Jul-18 13:28N 62°07' E 007°11'0 0.0
2017-Jul-18 13:01N 62°07' E 007°11'0 0.0
2017-Jul-18 12:31N 62°07' E 007°11'0 0.0
2017-Jul-18 12:01N 62°07' E 007°11'0 0.0
2017-Jul-18 11:31N 62°07' E 007°11'0 0.0
2017-Jul-18 11:01N 62°07' E 007°11'0 0.0
2017-Jul-18 10:31N 62°07' E 007°11'0 0.0
2017-Jul-18 10:01N 62°07' E 007°11'0 0.0
2017-Jul-18 09:31N 62°07' E 007°11'0 0.2
2017-Jul-18 09:00N 62°07' E 007°11'2 4.3
2017-Jul-18 08:31N 62°07' E 007°06'3 6.4
2017-Jul-18 08:00N 62°06' E 006°60'3 4.0
2017-Jul-18 07:16N 62°06' E 006°54'0 0.1
2017-Jul-18 06:18N 62°06' E 006°53'0 0.1
2017-Jul-18 05:44N 62°06' E 006°53'1 1.5
2017-Jul-18 04:55N 62°06' E 006°55'2 4.9
2017-Jul-18 04:30N 62°08' E 006°58'3 5.7
2017-Jul-18 04:00N 62°10' E 007°01'3 6.2
2017-Jul-18 03:30N 62°14' E 007°01'3 6.6
2017-Jul-18 03:00N 62°17' E 007°01'3 6.5
2017-Jul-18 02:30N 62°20' E 006°57'3 6.5
2017-Jul-18 02:00N 62°23' E 006°55'3 6.3
2017-Jul-18 01:30N 62°26' E 006°54'3 6.8
2017-Jul-18 01:00N 62°27' E 006°47'3 6.6
2017-Jul-18 00:30N 62°27' E 006°40'3 6.8
2017-Jul-18 00:00N 62°26' E 006°33'3 6.8
2017-Jul-17 23:30N 62°25' E 006°26'4 6.9
2017-Jul-17 23:00N 62°24' E 006°19'3 7.0
2017-Jul-17 22:30N 62°23' E 006°11'3 6.5
2017-Jul-17 22:00N 62°24' E 006°05'3 5.9
2017-Jul-17 21:30N 62°27' E 006°05'2 4.9
2017-Jul-17 21:00N 62°28' E 006°09'0 0.0
2017-Jul-17 20:29N 62°28' E 006°09'0 0.0
2017-Jul-17 19:59N 62°28' E 006°09'0 0.0
2017-Jul-17 19:29N 62°28' E 006°09'0 0.0
2017-Jul-17 18:59N 62°28' E 006°09'0 0.0
2017-Jul-17 18:29N 62°28' E 006°09'0 0.0
2017-Jul-17 17:59N 62°28' E 006°09'0 0.0
2017-Jul-17 17:29N 62°28' E 006°09'0 0.0
2017-Jul-17 17:01N 62°28' E 006°09'0 0.0
2017-Jul-17 16:29N 62°28' E 006°09'0 0.0
2017-Jul-17 16:01N 62°28' E 006°09'0 0.0
2017-Jul-17 15:29N 62°28' E 006°09'0 0.0
2017-Jul-17 14:59N 62°28' E 006°09'0 0.0
2017-Jul-17 14:29N 62°28' E 006°09'0 0.0
2017-Jul-17 13:59N 62°28' E 006°09'0 0.0
2017-Jul-17 13:31N 62°28' E 006°09'0 0.0
2017-Jul-17 13:01N 62°28' E 006°09'0 0.0
2017-Jul-17 12:31N 62°28' E 006°09'0 0.0
2017-Jul-17 12:00N 62°28' E 006°09'0 0.8
2017-Jul-17 11:30N 62°28' E 006°10'1 1.7
2017-Jul-17 11:00N 62°28' E 006°11'1 1.2
2017-Jul-17 10:30N 62°27' E 006°10'3 6.1
2017-Jul-17 09:59N 62°27' E 006°04'3 6.6
2017-Jul-17 09:30N 62°24' E 006°05'4 7.1
2017-Jul-17 09:00N 62°20' E 006°07'4 8.1
2017-Jul-17 08:30N 62°17' E 006°01'4 8.0
2017-Jul-17 08:00N 62°14' E 005°56'4 7.5
2017-Jul-17 07:30N 62°12' E 005°49'4 7.7
2017-Jul-17 07:00N 62°11' E 005°41'4 8.1
2017-Jul-17 06:30N 62°12' E 005°32'4 7.6
2017-Jul-17 06:00N 62°10' E 005°25'5 9.7
2017-Jul-17 05:30N 62°13' E 005°16'612.0
2017-Jul-17 05:00N 62°13' E 005°03'816.2
2017-Jul-17 04:30N 62°07' E 004°52'816.4
2017-Jul-17 04:00N 62°01' E 004°41'816.3
2017-Jul-17 03:30N 61°53' E 004°34'816.2
2017-Jul-17 03:00N 61°46' E 004°29'816.2
2017-Jul-17 02:30N 61°38' E 004°25'816.0
2017-Jul-17 02:00N 61°30' E 004°25'714.8
2017-Jul-17 01:30N 61°22' E 004°25'612.8
2017-Jul-17 01:00N 61°16' E 004°29'510.8
2017-Jul-17 00:30N 61°14' E 004°40'612.1
2017-Jul-17 00:00N 61°14' E 004°52'713.0
2017-Jul-16 23:30N 61°10' E 005°03'713.6
2017-Jul-16 23:00N 61°06' E 005°13'612.6
2017-Jul-16 22:30N 61°04' E 005°26'612.9
2017-Jul-16 22:00N 61°07' E 005°38'712.8
2017-Jul-16 21:30N 61°08' E 005°51'612.6
2017-Jul-16 21:00N 61°08' E 006°04'712.8
2017-Jul-16 20:30N 61°07' E 006°17'612.5
2017-Jul-16 20:00N 61°07' E 006°30'612.5
2017-Jul-16 19:30N 61°11' E 006°39'613.3
2017-Jul-16 19:00N 61°09' E 006°52'712.9
2017-Jul-16 18:30N 61°04' E 007°01'612.9
2017-Jul-16 18:00N 60°58' E 007°05'510.7
2017-Jul-16 17:30N 60°53' E 007°08'1 1.6
2017-Jul-16 17:00N 60°52' E 007°08'0 0.0
2017-Jul-16 16:30N 60°52' E 007°08'0 0.5
2017-Jul-16 16:00N 60°52' E 007°08'0 0.1
2017-Jul-16 15:30N 60°52' E 007°08'1 1.5
2017-Jul-16 15:00N 60°53' E 007°09'0 0.0
2017-Jul-16 14:30N 60°53' E 007°09'0 0.0
2017-Jul-16 14:00N 60°53' E 007°09'0 0.0
2017-Jul-16 13:30N 60°53' E 007°09'0 0.0
2017-Jul-16 13:00N 60°53' E 007°09'0 0.0
2017-Jul-16 12:30N 60°53' E 007°09'0 0.0
2017-Jul-16 12:00N 60°53' E 007°09'0 0.0
2017-Jul-16 11:30N 60°53' E 007°09'0 0.0
2017-Jul-16 11:00N 60°53' E 007°09'0 0.1
2017-Jul-16 10:30N 60°53' E 007°09'0 0.3
2017-Jul-16 10:00N 60°53' E 007°08'0 0.4
2017-Jul-16 09:29N 60°53' E 007°08'0 0.0
2017-Jul-16 08:59N 60°53' E 007°08'0 0.1
2017-Jul-16 08:29N 60°53' E 007°08'0 0.0
2017-Jul-16 07:59N 60°53' E 007°08'0 0.0
2017-Jul-16 07:29N 60°53' E 007°08'0 0.0
2017-Jul-16 06:59N 60°53' E 007°08'0 0.0
2017-Jul-16 06:29N 60°53' E 007°08'0 0.1
2017-Jul-16 05:59N 60°53' E 007°08'0 0.1
2017-Jul-16 05:30N 60°53' E 007°08'1 2.8
2017-Jul-16 05:00N 60°54' E 007°09'3 6.6
2017-Jul-16 04:30N 60°57' E 007°07'713.1
2017-Jul-16 04:00N 61°03' E 007°01'713.2
2017-Jul-16 03:30N 61°08' E 006°53'713.4
2017-Jul-16 03:00N 61°11' E 006°40'611.9
2017-Jul-16 02:30N 61°07' E 006°31'612.9
2017-Jul-16 02:00N 61°07' E 006°18'713.6
2017-Jul-16 01:30N 61°08' E 006°04'713.5
2017-Jul-16 01:00N 61°08' E 005°50'713.5
2017-Jul-16 00:30N 61°06' E 005°37'713.7
2017-Jul-16 00:00N 61°04' E 005°23'713.8
2017-Jul-15 23:30N 61°06' E 005°10'714.9
2017-Jul-15 23:00N 61°03' E 004°57'815.5
2017-Jul-15 22:31N 60°58' E 004°44'815.1
2017-Jul-15 22:00N 60°51' E 004°41'713.6
2017-Jul-15 21:30N 60°44' E 004°45'611.9
2017-Jul-15 21:00N 60°42' E 004°33'816.7
2017-Jul-15 20:30N 60°34' E 004°30'7615.7
2017-Jul-15 15:39N 59°19' E 004°10'317.1
2017-Jul-15 15:30N 59°16' E 004°10'917.3
2017-Jul-15 15:00N 59°08' E 004°11'1916.8
2017-Jul-15 13:54N 58°52' E 004°30'716.8
2017-Jul-15 13:30N 58°47' E 004°39'816.7
2017-Jul-15 13:00N 58°41' E 004°50'817.0
2017-Jul-15 12:30N 58°35' E 005°01'917.6
2017-Jul-15 12:00N 58°29' E 005°13'918.0
2017-Jul-15 11:30N 58°22' E 005°25'917.8
2017-Jul-15 11:00N 58°17' E 005°38'918.1
2017-Jul-15 10:30N 58°11' E 005°51'918.3
2017-Jul-15 10:00N 58°05' E 006°05'918.1
2017-Jul-15 09:30N 57°59' E 006°17'918.0
2017-Jul-15 09:00N 57°53' E 006°30'816.6
2017-Jul-15 08:30N 57°49' E 006°44'816.6
2017-Jul-15 08:00N 57°48' E 006°59'816.6
2017-Jul-15 07:30N 57°48' E 007°15'816.6
2017-Jul-15 07:00N 57°48' E 007°31'816.7
2017-Jul-15 06:30N 57°47' E 007°46'816.7
2017-Jul-15 06:00N 57°47' E 008°02'4716.2
2017-Jul-15 03:06N 57°49' E 009°30'215.9
2017-Jul-15 03:00N 57°49' E 009°33'816.0
2017-Jul-15 02:30N 57°49' E 009°48'916.3
2017-Jul-15 01:56N 57°49' E 010°06'716.2
2017-Jul-15 01:28N 57°49' E 010°20'816.0
2017-Jul-15 01:00N 57°49' E 010°34'815.4
2017-Jul-15 00:30N 57°47' E 010°47'816.2
2017-Jul-15 00:00N 57°42' E 010°59'816.2
2017-Jul-14 23:30N 57°36' E 011°10'816.5
2017-Jul-14 23:00N 57°30' E 011°21'815.9
2017-Jul-14 22:31N 57°24' E 011°30'816.5
2017-Jul-14 22:00N 57°16' E 011°34'916.6
2017-Jul-14 21:29N 57°08' E 011°40'816.8
2017-Jul-14 21:00N 57°00' E 011°45'816.7
2017-Jul-14 20:30N 56°53' E 011°50'816.6
2017-Jul-14 20:00N 56°45' E 011°54'816.7
2017-Jul-14 19:30N 56°37' E 011°58'2615.6
2017-Jul-14 17:52N 56°13' E 012°17'616.3
2017-Jul-14 17:30N 56°10' E 012°26'816.4
2017-Jul-14 17:00N 56°05' E 012°37'816.2
2017-Jul-14 16:30N 55°57' E 012°43'816.0
2017-Jul-14 16:00N 55°49' E 012°43'714.3
2017-Jul-14 15:31N 55°43' E 012°38'2 3.4
2017-Jul-14 14:59N 55°41' E 012°36'0 0.0
2017-Jul-14 14:29N 55°41' E 012°36'0 0.0
2017-Jul-14 13:59N 55°41' E 012°36'0 0.0
2017-Jul-14 13:29N 55°41' E 012°36'0 0.0
2017-Jul-14 12:59N 55°41' E 012°36'0 0.0
2017-Jul-14 12:29N 55°41' E 012°36'0 0.0
2017-Jul-14 11:59N 55°41' E 012°36'0 0.0
2017-Jul-14 11:29N 55°41' E 012°36'0 0.0
2017-Jul-14 10:59N 55°41' E 012°36'0 0.0
2017-Jul-14 10:29N 55°41' E 012°36'0 0.0
2017-Jul-14 09:59N 55°41' E 012°36'0 0.0
2017-Jul-14 09:29N 55°41' E 012°36'0 0.0
2017-Jul-14 08:59N 55°41' E 012°36'0 0.0
2017-Jul-14 08:29N 55°41' E 012°36'0 0.0
2017-Jul-14 07:59N 55°41' E 012°36'0 0.0
2017-Jul-14 07:29N 55°41' E 012°36'0 0.0
2017-Jul-14 06:59N 55°41' E 012°36'0 0.0
2017-Jul-14 06:29N 55°41' E 012°36'0 0.0
2017-Jul-14 05:59N 55°41' E 012°36'0 0.0
2017-Jul-14 05:29N 55°41' E 012°36'0 0.0
2017-Jul-14 04:59N 55°41' E 012°36'0 0.0
2017-Jul-14 04:29N 55°41' E 012°36'0 0.0
2017-Jul-14 03:59N 55°41' E 012°36'0 0.0
2017-Jul-14 03:29N 55°41' E 012°36'0 0.0
2017-Jul-14 02:59N 55°41' E 012°36'0 0.0
2017-Jul-14 02:29N 55°41' E 012°36'0 0.0
2017-Jul-14 01:59N 55°41' E 012°36'0 0.0
2017-Jul-14 01:29N 55°41' E 012°36'0 0.0
2017-Jul-14 00:59N 55°41' E 012°36'0 0.0
2017-Jul-14 00:29N 55°41' E 012°36'0 0.0
2017-Jul-13 23:59N 55°41' E 012°36'0 0.0
2017-Jul-13 23:29N 55°41' E 012°36'0 0.0
2017-Jul-13 22:59N 55°41' E 012°36'0 0.0
2017-Jul-13 22:29N 55°41' E 012°36'0 0.0
2017-Jul-13 21:59N 55°41' E 012°36'0 0.0
2017-Jul-13 21:29N 55°41' E 012°36'0 0.0
2017-Jul-13 20:59N 55°41' E 012°36'0 0.0
2017-Jul-13 20:29N 55°41' E 012°36'0 0.0
2017-Jul-13 19:59N 55°41' E 012°36'0 0.0
2017-Jul-13 19:29N 55°41' E 012°36'0 0.0
2017-Jul-13 18:59N 55°41' E 012°36'0 0.0
2017-Jul-13 18:29N 55°41' E 012°36'0 0.0
2017-Jul-13 17:59N 55°41' E 012°36'0 0.0
2017-Jul-13 17:29N 55°41' E 012°36'0 0.0
2017-Jul-13 16:59N 55°41' E 012°36'0 0.0
2017-Jul-13 16:29N 55°41' E 012°36'0 0.0
2017-Jul-13 15:59N 55°41' E 012°36'0 0.0
2017-Jul-13 15:29N 55°41' E 012°36'0 0.0
2017-Jul-13 14:59N 55°41' E 012°36'0 0.0
2017-Jul-13 14:29N 55°41' E 012°36'0 0.0
2017-Jul-13 13:59N 55°41' E 012°36'0 0.0
2017-Jul-13 13:29N 55°41' E 012°36'0 0.0
2017-Jul-13 12:59N 55°41' E 012°36'0 0.0
2017-Jul-13 12:29N 55°41' E 012°36'0 0.0
2017-Jul-13 11:59N 55°41' E 012°36'0 0.0
2017-Jul-13 11:29N 55°41' E 012°36'0 0.0
2017-Jul-13 10:59N 55°41' E 012°36'0 0.0
2017-Jul-13 10:29N 55°41' E 012°36'0 0.3
2017-Jul-13 10:01N 55°42' E 012°36'3 6.7
2017-Jul-13 09:31N 55°44' E 012°40'611.5
2017-Jul-13 09:00N 55°38' E 012°42'611.5
2017-Jul-13 08:30N 55°33' E 012°43'612.5
2017-Jul-13 08:01N 55°26' E 012°42'714.6
2017-Jul-13 07:30N 55°19' E 012°42'713.2
2017-Jul-13 07:00N 55°16' E 012°52'714.3
2017-Jul-13 06:30N 55°16' E 013°05'816.2
2017-Jul-13 06:00N 55°15' E 013°19'917.5
2017-Jul-13 05:30N 55°15' E 013°34'917.4
2017-Jul-13 05:01N 55°14' E 013°49'917.4
2017-Jul-13 04:30N 55°14' E 014°05'815.5
2017-Jul-13 04:01N 55°14' E 014°18'816.3
2017-Jul-13 03:31N 55°21' E 014°27'816.3
2017-Jul-13 03:01N 55°27' E 014°37'816.4
2017-Jul-13 02:31N 55°31' E 014°49'816.6
2017-Jul-13 02:01N 55°35' E 015°02'816.7
2017-Jul-13 01:31N 55°39' E 015°15'816.7
2017-Jul-13 01:01N 55°44' E 015°27'816.8
2017-Jul-13 00:31N 55°48' E 015°40'816.9
2017-Jul-13 00:00N 55°52' E 015°54'917.1
2017-Jul-12 23:30N 55°56' E 016°07'917.6
2017-Jul-12 23:00N 56°01' E 016°20'917.7
2017-Jul-12 22:31N 56°06' E 016°33'917.5
2017-Jul-12 22:00N 56°11' E 016°46'917.6
2017-Jul-12 21:31N 56°16' E 016°59'917.6
2017-Jul-12 21:00N 56°21' E 017°12'1017.7
2017-Jul-12 20:28N 56°26' E 017°26'1117.6
2017-Jul-12 19:50N 56°33' E 017°43'617.7
2017-Jul-12 19:29N 56°37' E 017°52'  

Dump ship's entire track history